Time;durP1;ratioP1;P1;durP2;ratioP2;P2;SDS_P1;SDS_P2;PMS_P1;PMS_P2;Temp;Humidity;BMP_temperature;BMP_pressure;BME280_temperature;BME280_humidity;BME280_pressure;Samples;Min_cycle;Max_cycle;Signal;HPM_P1;HPM_P2
2023/10/22 00:01:04;;;;;;;7.23;6.50;;;10.40;99.90;;;;;;5039150;28;20462;-57
2023/10/22 00:03:31;;;;;;;7.83;6.23;;;10.50;99.90;;;;;;5042181;28;20547;-57
2023/10/22 00:05:57;;;;;;;11.83;7.27;;;10.40;99.90;;;;;;5051636;28;20482;-58
2023/10/22 00:08:24;;;;;;;11.90;7.40;;;10.40;99.90;;;;;;5047912;28;20482;-57
2023/10/22 00:10:51;;;;;;;7.33;6.63;;;10.40;99.90;;;;;;5032682;28;20467;-58
2023/10/22 00:13:17;;;;;;;8.00;6.53;;;10.50;99.90;;;;;;5047066;28;20505;-58
2023/10/22 00:15:45;;;;;;;8.80;6.50;;;10.50;99.90;;;;;;5033989;28;20474;-58
2023/10/22 00:18:11;;;;;;;11.30;7.37;;;10.50;99.90;;;;;;5039647;28;20483;-57
2023/10/22 00:20:38;;;;;;;9.00;6.47;;;10.50;99.90;;;;;;5039786;28;20459;-58
2023/10/22 00:23:05;;;;;;;10.90;6.60;;;10.50;99.90;;;;;;5047416;28;20469;-58
2023/10/22 00:25:35;;;;;;;8.53;5.70;;;10.40;99.90;;;;;;5040904;28;20490;-57
2023/10/22 00:28:01;;;;;;;9.93;5.73;;;10.40;99.90;;;;;;5046022;28;20482;-57
2023/10/22 00:30:28;;;;;;;9.73;6.37;;;10.40;99.90;;;;;;5032095;28;20490;-58
2023/10/22 00:32:56;;;;;;;12.27;6.40;;;10.40;99.90;;;;;;5050579;28;20582;-58
2023/10/22 00:35:22;;;;;;;8.70;5.90;;;10.40;99.90;;;;;;5048356;28;20979;-58
2023/10/22 00:37:49;;;;;;;11.03;5.37;;;10.40;99.90;;;;;;5044352;28;20485;-57
2023/10/22 00:40:16;;;;;;;7.47;5.50;;;10.40;99.90;;;;;;5041877;28;20493;-57
2023/10/22 00:42:42;;;;;;;15.10;5.80;;;10.40;99.90;;;;;;5041367;28;20521;-57
2023/10/22 00:45:09;;;;;;;11.70;5.37;;;10.40;99.90;;;;;;5051367;28;20469;-58
2023/10/22 00:47:37;;;;;;;9.00;5.87;;;10.40;99.90;;;;;;5051596;28;20461;-57
2023/10/22 00:50:06;;;;;;;9.50;7.07;;;10.40;99.90;;;;;;5046572;28;20458;-57
2023/10/22 00:52:33;;;;;;;14.73;7.70;;;10.40;99.90;;;;;;5038924;28;20478;-57
2023/10/22 00:55:00;;;;;;;8.93;8.03;;;10.50;99.90;;;;;;5045717;28;20438;-57
2023/10/22 00:57:27;;;;;;;12.70;8.30;;;10.60;99.90;;;;;;5049722;28;20559;-58
2023/10/22 00:59:54;;;;;;;12.80;9.50;;;10.70;99.90;;;;;;5055166;28;20534;-57
2023/10/22 01:02:21;;;;;;;13.23;9.40;;;10.80;99.90;;;;;;5041128;28;20487;-56
2023/10/22 01:04:48;;;;;;;10.43;8.63;;;10.80;99.90;;;;;;5037209;28;20486;-57
2023/10/22 01:07:16;;;;;;;11.20;9.47;;;10.80;99.90;;;;;;5053523;28;20975;-58
2023/10/22 01:09:42;;;;;;;14.53;8.57;;;10.80;99.90;;;;;;5053464;28;20943;-58
2023/10/22 01:12:10;;;;;;;9.00;7.60;;;10.80;99.90;;;;;;5052131;28;20464;-57
2023/10/22 01:14:36;;;;;;;8.50;7.10;;;10.70;99.90;;;;;;5049050;28;20997;-57
2023/10/22 01:17:03;;;;;;;12.50;8.57;;;10.70;99.90;;;;;;5045853;28;20998;-57
2023/10/22 01:19:29;;;;;;;8.77;7.97;;;10.70;99.90;;;;;;5039739;28;20470;-58
2023/10/22 01:21:57;;;;;;;8.90;8.00;;;10.70;99.90;;;;;;5035085;28;20881;-57
2023/10/22 01:24:26;;;;;;;8.93;8.00;;;10.70;99.90;;;;;;5047608;28;20486;-57
2023/10/22 01:26:52;;;;;;;8.20;7.40;;;10.70;99.90;;;;;;5043879;28;20519;-57
2023/10/22 01:29:19;;;;;;;16.90;7.90;;;10.70;99.90;;;;;;5052797;28;20519;-57
2023/10/22 01:31:46;;;;;;;12.77;7.97;;;10.70;99.90;;;;;;5050891;28;20492;-57
2023/10/22 01:34:13;;;;;;;16.63;7.50;;;10.70;99.90;;;;;;5048681;28;21003;-58
2023/10/22 01:36:41;;;;;;;8.97;7.20;;;10.70;99.90;;;;;;5048976;28;20458;-58
2023/10/22 01:39:13;;;;;;;10.37;7.20;;;10.60;99.90;;;;;;5046629;28;20466;-58
2023/10/22 01:41:41;;;;;;;6.93;5.80;;;10.60;99.90;;;;;;5053703;28;20478;-58
2023/10/22 01:44:08;;;;;;;7.17;6.00;;;10.60;99.90;;;;;;5040526;28;20746;-57
2023/10/22 01:46:34;;;;;;;9.50;6.83;;;10.60;99.90;;;;;;5033897;28;20530;-57
2023/10/22 01:49:01;;;;;;;12.57;6.20;;;10.60;99.90;;;;;;5046954;28;20482;-58
2023/10/22 01:51:28;;;;;;;9.03;6.53;;;10.60;99.90;;;;;;5047902;28;20552;-57
2023/10/22 01:53:54;;;;;;;9.90;5.87;;;10.60;99.90;;;;;;5041449;28;20517;-57
2023/10/22 01:56:21;;;;;;;6.37;5.70;;;10.50;99.90;;;;;;5035412;28;20501;-59
2023/10/22 01:58:49;;;;;;;10.07;6.10;;;10.60;99.90;;;;;;5046044;28;20525;-58
2023/10/22 02:01:15;;;;;;;8.77;6.07;;;10.50;99.90;;;;;;5044704;28;20489;-57
2023/10/22 02:03:45;;;;;;;6.83;4.97;;;10.50;99.90;;;;;;5047102;28;20462;-57
2023/10/22 02:06:12;;;;;;;12.00;5.80;;;10.50;99.90;;;;;;5038666;28;20442;-58
2023/10/22 02:08:39;;;;;;;10.30;5.50;;;10.50;99.90;;;;;;5045337;28;20473;-57
2023/10/22 02:11:06;;;;;;;10.00;6.37;;;10.50;99.90;;;;;;5043277;28;20846;-56
2023/10/22 02:13:33;;;;;;;7.37;5.53;;;10.50;99.90;;;;;;5050258;28;20936;-57
2023/10/22 02:16:01;;;;;;;8.83;5.90;;;10.50;99.90;;;;;;5044321;28;20463;-57
2023/10/22 02:18:28;;;;;;;8.93;6.23;;;10.50;99.90;;;;;;5042306;28;20495;-57
2023/10/22 02:20:55;;;;;;;11.27;6.53;;;10.50;99.90;;;;;;5037058;28;20439;-58
2023/10/22 02:23:22;;;;;;;9.70;6.20;;;10.50;99.90;;;;;;5053090;28;20891;-57
2023/10/22 02:25:49;;;;;;;16.83;6.97;;;10.40;99.90;;;;;;5052026;28;20469;-56
2023/10/22 02:28:16;;;;;;;9.17;6.10;;;10.40;99.90;;;;;;5045749;28;20903;-57
2023/10/22 02:30:42;;;;;;;11.90;7.13;;;10.40;99.90;;;;;;5041604;28;20992;-57
2023/10/22 02:33:10;;;;;;;15.43;6.50;;;10.40;99.90;;;;;;5044184;28;20487;-57
2023/10/22 02:35:40;;;;;;;7.33;6.50;;;10.40;99.90;;;;;;5043382;28;20832;-57
2023/10/22 02:38:06;;;;;;;8.97;6.00;;;10.50;99.90;;;;;;5033880;28;20459;-57
2023/10/22 02:40:35;;;;;;;9.43;6.50;;;10.50;99.90;;;;;;5041565;28;20891;-57
2023/10/22 02:43:01;;;;;;;13.50;6.27;;;10.50;99.90;;;;;;5043191;28;20951;-57
2023/10/22 02:45:28;;;;;;;7.60;6.20;;;10.50;99.90;;;;;;5046095;28;20485;-57
2023/10/22 02:47:55;;;;;;;15.87;6.73;;;10.50;99.90;;;;;;5043133;28;21015;-57
2023/10/22 02:50:24;;;;;;;10.03;6.27;;;10.50;99.90;;;;;;5049077;28;20893;-57
2023/10/22 02:52:51;;;;;;;11.80;6.50;;;10.50;99.90;;;;;;5050169;28;20513;-57
2023/10/22 02:55:18;;;;;;;9.33;6.47;;;10.50;99.90;;;;;;5039149;28;20494;-57
2023/10/22 02:57:44;;;;;;;13.20;7.30;;;10.50;99.90;;;;;;5048264;28;20519;-57
2023/10/22 03:00:12;;;;;;;8.07;6.07;;;10.60;99.90;;;;;;5053312;28;20839;-56
2023/10/22 03:02:39;;;;;;;16.43;6.53;;;10.60;99.90;;;;;;5047210;28;20463;-58
2023/10/22 03:05:06;;;;;;;7.43;6.00;;;10.60;99.90;;;;;;5042316;28;20525;-57
2023/10/22 03:07:34;;;;;;;16.30;6.27;;;10.50;99.90;;;;;;5049806;28;20508;-58
2023/10/22 03:10:00;;;;;;;9.53;5.83;;;10.60;99.90;;;;;;5045552;28;20492;-58
2023/10/22 03:12:27;;;;;;;9.97;6.30;;;10.60;99.90;;;;;;5049116;28;20495;-58
2023/10/22 03:14:54;;;;;;;11.13;5.90;;;10.60;99.90;;;;;;5050826;28;21033;-57
2023/10/22 03:17:20;;;;;;;7.90;6.30;;;10.60;99.90;;;;;;5047433;28;20892;-57
2023/10/22 03:19:47;;;;;;;10.87;6.13;;;10.60;99.90;;;;;;5049063;28;20489;-58
2023/10/22 03:22:15;;;;;;;11.10;6.53;;;10.50;99.90;;;;;;5043943;28;20509;-57
2023/10/22 03:24:43;;;;;;;6.97;6.17;;;10.50;99.90;;;;;;5051596;28;20553;-57
2023/10/22 03:27:10;;;;;;;9.63;5.80;;;10.50;99.90;;;;;;5045904;28;20491;-56
2023/10/22 03:29:37;;;;;;;7.20;6.03;;;10.60;99.90;;;;;;5043995;28;20462;-56
2023/10/22 03:32:04;;;;;;;7.20;5.03;;;10.50;99.90;;;;;;5045031;28;20462;-57
2023/10/22 03:34:30;;;;;;;12.90;5.60;;;10.60;99.90;;;;;;5051039;28;20481;-57
2023/10/22 03:36:57;;;;;;;9.03;6.10;;;10.50;99.90;;;;;;5049928;28;20466;-57
2023/10/22 03:39:23;;;;;;;8.63;6.47;;;10.50;99.90;;;;;;5049713;28;20458;-57
2023/10/22 03:41:51;;;;;;;10.80;6.27;;;10.50;99.90;;;;;;5045937;28;20458;-57
2023/10/22 03:44:18;;;;;;;15.03;6.53;;;10.50;99.90;;;;;;5044563;28;20512;-57
2023/10/22 03:46:46;;;;;;;8.87;6.33;;;10.50;99.90;;;;;;5046495;28;20506;-58
2023/10/22 03:49:13;;;;;;;17.03;6.57;;;10.50;99.90;;;;;;5043833;28;20501;-58
2023/10/22 03:51:39;;;;;;;9.30;6.30;;;10.50;99.90;;;;;;5051454;28;20498;-57
2023/10/22 03:54:06;;;;;;;7.23;6.43;;;10.50;99.90;;;;;;5051704;28;21068;-57
2023/10/22 03:56:34;;;;;;;10.77;6.53;;;10.60;99.90;;;;;;5052103;28;20438;-57
2023/10/22 03:59:02;;;;;;;8.40;5.80;;;10.70;99.90;;;;;;5051544;28;20532;-55
2023/10/22 04:01:28;;;;;;;7.63;6.33;;;10.70;99.90;;;;;;5045673;28;20462;-55
2023/10/22 04:03:55;;;;;;;6.93;6.23;;;10.90;99.90;;;;;;5046334;28;20486;-55
2023/10/22 04:06:22;;;;;;;16.73;5.13;;;11.00;99.90;;;;;;5051473;28;20434;-55
2023/10/22 04:08:48;;;;;;;12.13;6.10;;;11.00;99.90;;;;;;5051524;28;20539;-54
2023/10/22 04:11:18;;;;;;;10.20;5.63;;;11.00;99.90;;;;;;5052080;28;20465;-56
2023/10/22 04:13:45;;;;;;;5.63;4.97;;;11.10;99.90;;;;;;5051405;28;21076;-55
2023/10/22 04:16:16;;;;;;;5.03;4.43;;;11.10;99.90;;;;;;5051555;28;20469;-54
2023/10/22 04:18:43;;;;;;;5.23;4.73;;;11.20;99.90;;;;;;5046026;28;20521;-56
2023/10/22 04:21:13;;;;;;;7.17;5.23;;;11.20;99.90;;;;;;5050238;28;20543;-55
2023/10/22 04:23:39;;;;;;;5.07;4.67;;;11.30;99.90;;;;;;5049022;28;20465;-55
2023/10/22 04:26:11;;;;;;;7.20;4.57;;;11.30;99.90;;;;;;5047403;28;20486;-55
2023/10/22 04:28:38;;;;;;;7.40;5.33;;;11.30;99.90;;;;;;5051319;28;20462;-55
2023/10/22 04:31:04;;;;;;;4.90;4.50;;;11.30;99.90;;;;;;5049614;28;20501;-56
2023/10/22 04:33:32;;;;;;;5.50;4.67;;;11.30;99.90;;;;;;5044690;28;20474;-57
2023/10/22 04:35:59;;;;;;;5.63;5.07;;;11.30;99.90;;;;;;5050192;28;20473;-56
2023/10/22 04:38:25;;;;;;;11.53;4.07;;;11.30;99.90;;;;;;5044340;28;21019;-56
2023/10/22 04:40:52;;;;;;;5.47;4.80;;;11.30;99.90;;;;;;5049872;28;20449;-56
2023/10/22 04:43:19;;;;;;;4.97;4.53;;;11.30;99.90;;;;;;5049432;28;20462;-55
2023/10/22 04:45:49;;;;;;;5.47;4.60;;;11.30;99.90;;;;;;5050690;28;20480;-57
2023/10/22 04:48:17;;;;;;;4.53;4.10;;;11.30;99.90;;;;;;5044419;28;20477;-56
2023/10/22 04:50:45;;;;;;;4.67;4.13;;;11.30;99.90;;;;;;5046114;28;20464;-57
2023/10/22 04:53:12;;;;;;;6.60;4.47;;;11.40;99.90;;;;;;5049124;28;20935;-57
2023/10/22 04:55:38;;;;;;;4.30;3.90;;;11.40;99.90;;;;;;5051676;28;20927;-56
2023/10/22 04:58:05;;;;;;;10.90;4.60;;;11.40;99.90;;;;;;5051491;28;20505;-57
2023/10/22 05:00:31;;;;;;;10.30;4.90;;;11.40;99.90;;;;;;5049293;28;20822;-57
2023/10/22 05:02:59;;;;;;;7.80;4.87;;;11.50;99.90;;;;;;5052601;28;20812;-56
2023/10/22 05:05:25;;;;;;;5.17;4.20;;;11.50;99.90;;;;;;5050132;28;20454;-57
2023/10/22 05:07:53;;;;;;;5.70;3.87;;;11.40;99.90;;;;;;5050743;28;20486;-56
2023/10/22 05:10:20;;;;;;;4.90;3.97;;;11.40;99.90;;;;;;5051707;28;20490;-56
2023/10/22 05:12:46;;;;;;;4.30;3.90;;;11.40;99.90;;;;;;5049444;28;20932;-57
2023/10/22 05:15:13;;;;;;;4.70;4.10;;;11.40;99.90;;;;;;5052046;28;20497;-57
2023/10/22 05:17:41;;;;;;;4.20;3.83;;;11.40;99.90;;;;;;5041937;28;20552;-57
2023/10/22 05:20:09;;;;;;;4.80;4.13;;;11.40;99.90;;;;;;5042013;28;20500;-57
2023/10/22 05:22:35;;;;;;;5.13;3.80;;;11.40;99.90;;;;;;5041842;28;21064;-57
2023/10/22 05:25:03;;;;;;;6.03;3.90;;;11.40;99.90;;;;;;5050915;28;20860;-55
2023/10/22 05:27:30;;;;;;;7.57;4.40;;;11.40;99.90;;;;;;5047935;28;20485;-56
2023/10/22 05:29:56;;;;;;;16.03;4.70;;;11.40;99.90;;;;;;5049240;28;20493;-56
2023/10/22 05:32:23;;;;;;;4.40;3.97;;;11.40;99.90;;;;;;5051192;28;20513;-57
2023/10/22 05:34:50;;;;;;;4.20;3.50;;;11.40;99.90;;;;;;5050404;28;20524;-57
2023/10/22 05:37:17;;;;;;;7.57;3.97;;;11.40;99.90;;;;;;5052660;28;20465;-57
2023/10/22 05:39:44;;;;;;;6.53;4.20;;;11.40;99.90;;;;;;5057646;28;20453;-57
2023/10/22 05:42:12;;;;;;;7.27;4.33;;;11.30;99.90;;;;;;5052099;28;20488;-58
2023/10/22 05:44:38;;;;;;;5.40;4.40;;;11.30;99.90;;;;;;5051227;28;20519;-56
2023/10/22 05:47:05;;;;;;;5.43;4.17;;;11.30;99.90;;;;;;5056360;28;20457;-63
2023/10/22 05:49:32;;;;;;;4.83;3.77;;;11.30;99.90;;;;;;5056064;28;20461;-56
2023/10/22 05:51:59;;;;;;;6.13;3.63;;;11.30;99.90;;;;;;5054343;28;20484;-56
2023/10/22 05:54:25;;;;;;;3.80;3.30;;;11.30;99.90;;;;;;5054613;28;20551;-57
2023/10/22 05:56:52;;;;;;;4.63;3.40;;;11.30;99.90;;;;;;5054568;28;20477;-56
2023/10/22 05:59:19;;;;;;;3.53;3.23;;;11.30;99.90;;;;;;5050781;28;20489;-56
2023/10/22 06:01:46;;;;;;;4.40;3.50;;;11.30;99.90;;;;;;5054184;28;20515;-56
2023/10/22 06:04:13;;;;;;;8.47;5.57;;;11.30;99.90;;;;;;5045773;28;20485;-56
2023/10/22 06:06:39;;;;;;;4.27;3.87;;;11.30;99.90;;;;;;5054042;28;20433;-57
2023/10/22 06:09:06;;;;;;;5.80;4.60;;;11.40;99.90;;;;;;5054089;28;20516;-56
2023/10/22 06:11:33;;;;;;;5.80;5.20;;;11.30;99.90;;;;;;5051225;28;20457;-56
2023/10/22 06:14:00;;;;;;;6.00;5.43;;;11.40;99.90;;;;;;5053781;28;20481;-56
2023/10/22 06:16:28;;;;;;;3.70;3.40;;;11.40;99.90;;;;;;5053081;28;20488;-56
2023/10/22 06:18:54;;;;;;;5.27;4.23;;;11.40;99.90;;;;;;5053659;28;20508;-56
2023/10/22 06:21:22;;;;;;;4.90;3.27;;;11.40;99.90;;;;;;5052059;28;20490;-55
2023/10/22 06:23:50;;;;;;;3.50;3.20;;;11.40;99.90;;;;;;5053934;28;20470;-56
2023/10/22 06:26:17;;;;;;;5.73;3.40;;;11.40;99.90;;;;;;5051272;28;20462;-56
2023/10/22 06:28:44;;;;;;;3.87;3.33;;;11.30;99.90;;;;;;5051788;28;20470;-56
2023/10/22 06:31:12;;;;;;;3.60;3.30;;;11.30;99.90;;;;;;5050687;28;20499;-56
2023/10/22 06:33:42;;;;;;;5.10;3.60;;;11.30;99.90;;;;;;5052234;28;20523;-55
2023/10/22 06:36:15;;;;;;;4.80;4.30;;;11.30;99.90;;;;;;5053339;28;20907;-56
2023/10/22 06:38:42;;;;;;;4.90;3.50;;;11.30;99.90;;;;;;5053560;28;20490;-55
2023/10/22 06:41:12;;;;;;;5.03;3.90;;;11.30;99.90;;;;;;5053459;28;20503;-56
2023/10/22 06:43:39;;;;;;;4.47;3.70;;;11.30;99.90;;;;;;5053608;28;20442;-62
2023/10/22 06:46:05;;;;;;;4.70;3.90;;;11.30;99.90;;;;;;5049675;28;20468;-55
2023/10/22 06:48:32;;;;;;;4.63;3.70;;;11.20;99.90;;;;;;5042221;28;20504;-55
2023/10/22 06:51:00;;;;;;;6.10;4.23;;;11.20;99.90;;;;;;5049647;28;20543;-56
2023/10/22 06:53:26;;;;;;;4.37;3.80;;;11.20;99.90;;;;;;5046837;28;20927;-56
2023/10/22 06:55:53;;;;;;;4.20;3.80;;;11.20;99.90;;;;;;5052672;28;21018;-58
2023/10/22 06:58:19;;;;;;;3.87;3.57;;;11.20;99.90;;;;;;5052752;28;20512;-58
2023/10/22 07:00:46;;;;;;;6.17;3.97;;;11.20;99.90;;;;;;5052330;28;20544;-58
2023/10/22 07:03:12;;;;;;;12.60;3.93;;;11.20;99.90;;;;;;5041449;28;20443;-58
2023/10/22 07:05:40;;;;;;;7.43;4.10;;;11.20;99.90;;;;;;5046437;28;20458;-58
2023/10/22 07:08:08;;;;;;;6.03;4.03;;;11.20;99.90;;;;;;5051659;28;20469;-57
2023/10/22 07:10:34;;;;;;;9.20;4.00;;;11.20;99.90;;;;;;5053094;28;20500;-57
2023/10/22 07:13:01;;;;;;;6.20;3.97;;;11.20;99.90;;;;;;5051508;28;20458;-57
2023/10/22 07:15:29;;;;;;;6.83;3.73;;;11.30;99.90;;;;;;5051857;28;20489;-58
2023/10/22 07:17:55;;;;;;;4.40;4.03;;;11.30;99.90;;;;;;5052790;28;20524;-58
2023/10/22 07:20:22;;;;;;;4.83;3.40;;;11.40;99.90;;;;;;5050225;28;20489;-59
2023/10/22 07:22:48;;;;;;;5.40;3.97;;;11.40;99.90;;;;;;5044115;28;20461;-57
2023/10/22 07:25:17;;;;;;;3.67;3.30;;;11.40;99.90;;;;;;5043599;28;20482;-58
2023/10/22 07:27:43;;;;;;;4.13;3.73;;;11.50;99.90;;;;;;5047396;28;20990;-57
2023/10/22 07:30:12;;;;;;;5.93;3.40;;;11.50;99.90;;;;;;5043797;28;20509;-58
2023/10/22 07:32:38;;;;;;;4.23;3.80;;;11.60;99.90;;;;;;5049336;28;20458;-58
2023/10/22 07:35:06;;;;;;;4.00;3.60;;;11.70;99.90;;;;;;5035344;28;20862;-57
2023/10/22 07:37:32;;;;;;;4.40;3.20;;;11.70;99.90;;;;;;5049666;28;20485;-58
2023/10/22 07:39:59;;;;;;;5.67;3.17;;;11.80;99.90;;;;;;5042134;28;20446;-57
2023/10/22 07:42:27;;;;;;;7.33;3.00;;;11.80;99.90;;;;;;5036000;28;20499;-58
2023/10/22 07:44:53;;;;;;;2.90;2.67;;;11.80;99.90;;;;;;5040446;28;20446;-58
2023/10/22 07:47:20;;;;;;;3.83;2.50;;;11.90;99.90;;;;;;5032729;28;20894;-57
2023/10/22 07:49:51;;;;;;;3.57;2.37;;;12.00;99.90;;;;;;5032883;28;20450;-63
2023/10/22 07:52:18;;;;;;;2.60;2.40;;;12.00;99.90;;;;;;5036489;28;20457;-57
2023/10/22 07:54:47;;;;;;;1.93;1.83;;;12.10;99.90;;;;;;5043307;28;20533;-57
2023/10/22 07:57:13;;;;;;;2.43;2.10;;;12.20;99.90;;;;;;5039994;28;20464;-57
2023/10/22 07:59:41;;;;;;;2.23;2.03;;;12.30;99.90;;;;;;5042618;28;20501;-58
2023/10/22 08:02:08;;;;;;;5.13;2.50;;;12.30;99.90;;;;;;5040993;28;20523;-58
2023/10/22 08:04:35;;;;;;;2.33;2.13;;;12.40;99.90;;;;;;5038194;28;20819;-58
2023/10/22 08:07:02;;;;;;;2.30;2.10;;;12.50;99.90;;;;;;5051783;28;20893;-58
2023/10/22 08:09:28;;;;;;;2.70;1.90;;;12.50;99.90;;;;;;5052138;28;20473;-57
2023/10/22 08:11:55;;;;;;;2.20;2.00;;;12.60;99.90;;;;;;5048427;28;20527;-57
2023/10/22 08:14:22;;;;;;;3.60;1.90;;;12.60;99.90;;;;;;5039326;28;20497;-57
2023/10/22 08:16:50;;;;;;;2.50;1.70;;;12.70;99.90;;;;;;5045021;28;20469;-58
2023/10/22 08:19:16;;;;;;;3.70;2.00;;;12.80;23.90;;;;;;5039697;28;20512;-57
2023/10/22 08:21:43;;;;;;;2.47;1.70;;;12.80;26.50;;;;;;5042220;28;20463;-58
2023/10/22 08:24:10;;;;;;;2.53;1.90;;;12.90;29.20;;;;;;5045045;28;20508;-58
2023/10/22 08:26:36;;;;;;;3.23;2.40;;;13.00;28.10;;;;;;5046020;28;20862;-57
2023/10/22 08:29:03;;;;;;;2.03;1.83;;;13.00;36.00;;;;;;5048201;28;20535;-58
2023/10/22 08:31:30;;;;;;;3.60;2.07;;;13.10;36.80;;;;;;5037980;28;20485;-58
2023/10/22 08:33:58;;;;;;;6.43;2.30;;;13.10;43.00;;;;;;5047998;28;20499;-58
2023/10/22 08:36:24;;;;;;;6.33;2.20;;;13.20;45.00;;;;;;5044560;28;20999;-59
2023/10/22 08:38:51;;;;;;;1.93;1.73;;;13.20;44.10;;;;;;5049096;28;21047;-59
2023/10/22 08:41:21;;;;;;;5.70;2.37;;;13.20;57.50;;;;;;5049910;28;21038;-58
2023/10/22 08:43:49;;;;;;;3.53;2.50;;;13.30;53.10;;;;;;5043481;28;20870;-57
2023/10/22 08:46:16;;;;;;;3.90;2.40;;;13.30;53.80;;;;;;5038258;28;20457;-57
2023/10/22 08:48:44;;;;;;;1.60;1.50;;;13.40;59.90;;;;;;5043067;28;20486;-58
2023/10/22 08:51:12;;;;;;;2.17;1.80;;;13.40;57.90;;;;;;5044480;28;20453;-58
2023/10/22 08:53:38;;;;;;;3.67;1.90;;;13.50;61.70;;;;;;5036580;28;20465;-58
2023/10/22 08:56:06;;;;;;;4.87;1.77;;;13.50;69.20;;;;;;5046070;28;20564;-59
2023/10/22 08:58:33;;;;;;;4.93;1.80;;;13.50;70.40;;;;;;5043089;28;20565;-58
2023/10/22 09:00:59;;;;;;;1.60;1.50;;;13.50;78.70;;;;;;5044515;28;20462;-57
2023/10/22 09:03:28;;;;;;;3.47;1.80;;;13.50;90.60;;;;;;5044581;28;20868;-58
2023/10/22 09:05:54;;;;;;;5.33;1.77;;;13.50;90.20;;;;;;5048557;28;20535;-59
2023/10/22 09:08:41;;;;;;;2.63;1.70;;;13.50;91.10;;;;;;5043037;28;20485;-58
2023/10/22 09:11:12;;;;;;;2.17;1.87;;;13.60;90.80;;;;;;5041185;28;20462;-57
2023/10/22 09:13:39;;;;;;;2.10;1.90;;;13.60;94.20;;;;;;5040575;28;20472;-59
2023/10/22 09:16:06;;;;;;;4.43;1.67;;;13.60;88.30;;;;;;5038913;28;20522;-58
2023/10/22 09:18:33;;;;;;;2.20;1.80;;;13.60;99.60;;;;;;5043832;28;20560;-59
2023/10/22 09:21:06;;;;;;;2.30;1.50;;;13.60;93.90;;;;;;5047926;28;20873;-58
2023/10/22 09:23:34;;;;;;;1.60;1.50;;;13.60;99.90;;;;;;5046297;28;20464;-59
2023/10/22 09:26:01;;;;;;;3.20;1.60;;;13.60;99.90;;;;;;5044964;28;20527;-59
2023/10/22 09:28:28;;;;;;;3.53;1.63;;;13.70;99.90;;;;;;5047916;28;20915;-59
2023/10/22 09:30:56;;;;;;;5.90;1.57;;;13.70;99.90;;;;;;5045049;28;20461;-57
2023/10/22 09:33:32;;;;;;;4.53;1.47;;;13.70;99.90;;;;;;5049261;28;20461;-59
2023/10/22 09:36:00;;;;;;;2.70;1.70;;;13.70;99.90;;;;;;5041352;28;20481;-57
2023/10/22 09:38:45;;;;;;;3.63;1.53;;;13.70;99.90;;;;;;5044563;28;20606;-58
2023/10/22 09:41:13;;;;;;;2.90;1.57;;;13.70;99.90;;;;;;5040552;28;21575;-59
2023/10/22 09:43:40;;;;;;;4.40;1.40;;;13.70;99.90;;;;;;5045188;28;20454;-57
2023/10/22 09:46:07;;;;;;;3.50;1.37;;;13.70;99.90;;;;;;5044925;28;20949;-57
2023/10/22 09:48:36;;;;;;;4.70;1.63;;;13.70;99.90;;;;;;5051189;28;20967;-57
2023/10/22 09:51:05;;;;;;;1.50;1.33;;;13.70;99.90;;;;;;5049296;28;21669;-57
2023/10/22 09:53:38;;;;;;;3.87;1.70;;;13.70;99.90;;;;;;5044156;28;20458;-58
2023/10/22 09:56:07;;;;;;;2.97;1.70;;;13.70;99.90;;;;;;5042238;28;20485;-58
2023/10/22 09:58:44;;;;;;;3.70;1.70;;;13.80;99.90;;;;;;4998650;28;1023844;-55
2023/10/22 10:01:11;;;;;;;2.97;1.80;;;13.80;99.90;;;;;;5050308;28;20696;-56
2023/10/22 10:03:38;;;;;;;6.13;1.80;;;13.80;99.90;;;;;;5054767;28;20441;-55
2023/10/22 10:06:06;;;;;;;4.87;1.83;;;13.90;99.90;;;;;;5047348;28;20892;-56
2023/10/22 10:08:36;;;;;;;2.10;1.90;;;13.90;99.90;;;;;;5051704;28;20999;-56
2023/10/22 10:11:03;;;;;;;1.93;1.67;;;13.80;99.90;;;;;;5043486;28;20472;-56
2023/10/22 10:13:31;;;;;;;7.10;1.90;;;13.90;99.90;;;;;;5041286;28;20493;-55
2023/10/22 10:16:01;;;;;;;3.03;1.77;;;13.90;99.90;;;;;;5049259;28;20812;-55
2023/10/22 10:19:01;;;;;;;2.87;1.77;;;13.90;99.90;;;;;;5053380;28;20548;-56
2023/10/22 10:21:44;;;;;;;8.80;1.83;;;13.90;99.90;;;;;;5037958;28;20455;-56
2023/10/22 10:24:22;;;;;;;5.07;1.83;;;13.90;99.90;;;;;;5048854;28;20836;-56
2023/10/22 10:26:51;;;;;;;2.50;1.43;;;14.00;99.90;;;;;;5044186;28;20489;-55
2023/10/22 10:29:21;;;;;;;2.17;1.70;;;14.00;99.90;;;;;;5047418;28;20477;-55
2023/10/22 10:31:48;;;;;;;3.53;1.63;;;14.10;99.90;;;;;;5053169;28;20461;-55
2023/10/22 10:34:22;;;;;;;2.43;1.60;;;14.10;99.90;;;;;;5051249;28;20537;-58
2023/10/22 10:36:50;;;;;;;3.20;2.17;;;14.10;99.90;;;;;;5045327;28;20532;-58
2023/10/22 10:39:38;;;;;;;4.60;2.00;;;14.20;99.90;;;;;;5046449;28;20490;-58
2023/10/22 10:42:05;;;;;;;5.60;2.63;;;14.20;99.90;;;;;;5050080;28;20497;-59
2023/10/22 10:44:53;;;;;;;5.80;2.53;;;14.20;99.90;;;;;;5049036;28;20453;-55
2023/10/22 10:47:33;;;;;;;4.03;2.00;;;14.30;99.90;;;;;;5044352;28;20510;-58
2023/10/22 10:50:03;;;;;;;12.47;5.80;;;14.40;99.90;;;;;;5049879;28;20527;-57
2023/10/22 10:52:31;;;;;;;12.70;3.50;;;14.50;99.90;;;;;;5050621;28;20963;-58
2023/10/22 10:55:02;;;;;;;22.67;9.53;;;14.50;99.90;;;;;;5050216;28;20462;-57
2023/10/22 10:57:36;;;;;;;9.77;3.80;;;14.50;99.90;;;;;;5047795;28;20546;-58
2023/10/22 11:00:05;;;;;;;21.97;8.83;;;14.60;99.90;;;;;;5051906;28;20503;-59
2023/10/22 11:02:40;;;;;;;7.50;3.77;;;14.60;99.90;;;;;;5044025;28;20466;-53
2023/10/22 11:05:07;;;;;;;7.20;4.43;;;14.60;99.90;;;;;;5051884;28;20465;-59
2023/10/22 11:07:34;;;;;;;8.07;4.50;;;14.70;99.90;;;;;;5046364;28;20486;-54
2023/10/22 11:10:07;;;;;;;12.27;5.90;;;14.70;99.90;;;;;;5050107;28;20461;-54
2023/10/22 11:12:34;;;;;;;16.00;5.77;;;14.80;99.90;;;;;;5045267;28;20474;-56
2023/10/22 11:15:01;;;;;;;7.83;4.27;;;14.90;99.90;;;;;;5045284;28;20489;-58
2023/10/22 11:17:28;;;;;;;8.13;3.70;;;15.00;99.90;;;;;;5041342;28;20572;-59
2023/10/22 11:19:55;;;;;;;8.77;3.70;;;15.00;99.90;;;;;;5043114;28;20441;-59
2023/10/22 11:22:21;;;;;;;7.40;1.80;;;15.20;99.90;;;;;;5047409;28;20449;-57
2023/10/22 11:24:49;;;;;;;3.83;2.67;;;15.10;99.90;;;;;;5046271;28;20504;-57
2023/10/22 11:27:16;;;;;;;3.67;2.20;;;15.20;99.90;;;;;;5043893;28;20454;-57
2023/10/22 11:29:43;;;;;;;2.07;1.70;;;15.20;99.90;;;;;;5049669;28;20466;-58
2023/10/22 11:32:13;;;;;;;3.77;1.63;;;15.10;99.90;;;;;;5051843;28;20936;-56
2023/10/22 11:34:50;;;;;;;5.03;2.10;;;15.20;99.90;;;;;;5047243;28;20480;-55
2023/10/22 11:37:20;;;;;;;4.57;1.90;;;15.30;99.90;;;;;;5049468;28;20490;-57
2023/10/22 11:39:47;;;;;;;6.57;2.33;;;15.30;99.90;;;;;;5043954;28;20525;-54
2023/10/22 11:42:13;;;;;;;8.97;1.60;;;15.30;22.40;;;;;;5050263;28;20462;-58
2023/10/22 11:44:44;;;;;;;4.60;1.47;;;15.30;33.30;;;;;;5057660;28;20481;-57
2023/10/22 11:47:27;;;;;;;4.97;1.87;;;15.40;30.20;;;;;;5052627;28;20450;-57
2023/10/22 11:49:55;;;;;;;4.77;1.50;;;15.50;36.80;;;;;;5063249;28;20472;-63
2023/10/22 11:52:51;;;;;;;1.97;0.90;;;15.60;34.50;;;;;;5057952;28;20787;-57
2023/10/22 11:55:19;;;;;;;3.30;1.60;;;15.60;41.60;;;;;;5045402;28;20535;-58
2023/10/22 11:57:46;;;;;;;1.93;1.20;;;15.70;58.20;;;;;;5054490;28;20489;-58
2023/10/22 12:00:14;;;;;;;3.70;1.67;;;15.80;56.00;;;;;;5049806;28;20470;-57
2023/10/22 12:02:40;;;;;;;8.43;1.77;;;15.90;69.10;;;;;;5036807;28;20499;-57
2023/10/22 12:05:09;;;;;;;4.53;1.07;;;16.20;82.80;;;;;;5034178;28;20447;-56
2023/10/22 12:07:36;;;;;;;7.30;1.10;;;16.30;99.90;;;;;;5049599;28;20471;-57
2023/10/22 12:10:05;;;;;;;3.20;1.33;;;17.10;99.90;;;;;;5045725;28;20489;-56
2023/10/22 12:12:31;;;;;;;8.07;1.27;;;17.10;99.90;;;;;;5044842;28;20454;-56
2023/10/22 12:14:58;;;;;;;3.60;1.17;;;17.90;99.90;;;;;;5044244;28;20481;-57
2023/10/22 12:17:24;;;;;;;3.77;1.00;;;17.70;99.90;;;;;;5045468;28;20514;-57
2023/10/22 12:19:51;;;;;;;3.70;1.10;;;17.50;99.90;;;;;;5047794;28;20458;-56
2023/10/22 12:22:19;;;;;;;2.13;1.23;;;17.30;99.90;;;;;;5049154;28;20485;-56
2023/10/22 12:24:48;;;;;;;3.03;1.13;;;17.30;99.90;;;;;;5050976;28;20461;-55
2023/10/22 12:27:15;;;;;;;7.10;1.53;;;17.10;99.90;;;;;;5037962;28;20453;-55
2023/10/22 12:29:42;;;;;;;4.00;1.20;;;16.80;99.90;;;;;;5048782;28;20489;-55
2023/10/22 12:32:08;;;;;;;1.80;1.33;;;16.70;99.90;;;;;;5054273;28;20844;-53
2023/10/22 12:34:35;;;;;;;5.30;1.37;;;16.60;99.90;;;;;;5052931;28;20808;-54
2023/10/22 12:37:01;;;;;;;2.83;1.00;;;17.00;99.90;;;;;;5049331;28;20501;-54
2023/10/22 12:39:30;;;;;;;1.70;1.00;;;17.00;99.90;;;;;;5048739;28;20604;-54
2023/10/22 12:41:57;;;;;;;7.73;1.60;;;17.20;99.90;;;;;;5052400;28;20502;-55
2023/10/22 12:44:24;;;;;;;5.50;1.23;;;17.20;99.90;;;;;;5050312;28;20458;-54
2023/10/22 12:46:50;;;;;;;6.40;1.93;;;17.20;99.90;;;;;;5046860;28;20446;-55
2023/10/22 12:49:17;;;;;;;3.57;1.37;;;17.10;99.90;;;;;;5046583;28;20482;-53